KCON/CON METAR and TAF weather

Enter ICAO airport designator
Station Type Date Time Source
KCON METAR 2019/12/08 13:51 UTC NOAA

KCON 081351Z AUTO 00000KT 10SM CLR M16/M17 A3051 RMK AO2 SLP340 I1000 T11561167


Station Type Date Time Source
KCON Decoded METAR 2019/12/08 13:51 UTC NOAA

Concord, Concord Municipal Airport, NH, United States (KCON) 43-11-43N 071-30-04W 103M
Dec 08, 2019 - 08:51 AM EST / 2019.12.08 1351 UTC
Wind: Calm:0
Visibility: 10 mile(s):0
Sky conditions: clear
Temperature: 3.9 F (-15.6 C)
Dew Point: 1.9 F (-16.7 C)
Relative Humidity: 91%
Pressure (altimeter): 30.51 in. Hg (1033 hPa)
ob: KCON 081351Z AUTO 00000KT 10SM CLR M16/M17 A3051 RMK AO2 SLP340 I1000 T11561167
cycle: 14

Station Type Date Time Source
KCON TAF 2019/12/08 12:24 UTC NOAA

TAF KCON 081122Z 0812/0912 00000KT P6SM SKC
FM081700 18005KT P6SM SCT250
FM090600 21006KT P6SM OVC100
FM090800 22004KT P6SM OVC050 WS020/22040KT

Example: see airport list